Time;durP1;ratioP1;P1;durP2;ratioP2;P2;SDS_P1;SDS_P2;PMS_P1;PMS_P2;Temp;Humidity;BMP_temperature;BMP_pressure;BME280_temperature;BME280_humidity;BME280_pressure;Samples;Min_cycle;Max_cycle;Signal;HPM_P1;HPM_P2
2023/12/25 00:00:34;;;;;;;;;10.33;2.67;;;;;12.71;75.03;101195.16;4995839;28;45399;-55
2023/12/25 00:03:00;;;;;;;;;3.33;2.00;;;;;12.76;75.25;101198.22;4996067;28;45419;-56
2023/12/25 00:05:26;;;;;;;;;6.00;3.00;;;;;12.78;75.22;101204.25;4996202;28;46051;-55
2023/12/25 00:07:51;;;;;;;;;9.00;7.00;;;;;12.80;75.20;101198.75;4995821;28;45315;-53
2023/12/25 00:10:17;;;;;;;;;8.33;5.33;;;;;12.82;75.29;101210.16;4995912;28;45350;-56
2023/12/25 00:12:42;;;;;;;;;3.67;3.00;;;;;12.82;75.14;101205.63;4996018;28;45375;-55
2023/12/25 00:15:09;;;;;;;;;5.00;4.33;;;;;12.72;74.97;101194.16;4998238;28;45359;-53
2023/12/25 00:17:34;;;;;;;;;4.67;4.00;;;;;12.84;74.89;101205.47;4998823;28;45354;-55
2023/12/25 00:19:59;;;;;;;;;8.67;4.67;;;;;12.78;75.25;101206.09;4998856;28;45415;-56
2023/12/25 00:22:24;;;;;;;;;7.33;4.67;;;;;12.85;74.88;101217.84;4999343;28;45168;-54
2023/12/25 00:24:50;;;;;;;;;6.67;3.00;;;;;12.87;75.24;101218.53;4998822;28;45288;-56
2023/12/25 00:27:15;;;;;;;;;7.67;4.00;;;;;12.87;75.15;101214.03;4998793;28;45283;-56
2023/12/25 00:29:40;;;;;;;;;5.00;4.00;;;;;12.90;74.89;101212.91;4998807;28;45338;-58
2023/12/25 00:32:06;;;;;;;;;3.33;2.67;;;;;12.91;75.07;101212.75;4999066;28;45281;-56
2023/12/25 00:34:31;;;;;;;;;2.00;2.00;;;;;12.86;75.14;101207.03;4998723;28;46157;-52
2023/12/25 00:36:56;;;;;;;;;8.67;2.67;;;;;12.87;75.66;101199.84;4998516;28;45435;-53
2023/12/25 00:39:22;;;;;;;;;4.67;3.33;;;;;12.91;75.26;101206.56;4998906;28;45453;-52
2023/12/25 00:41:47;;;;;;;;;5.00;4.67;;;;;12.92;74.89;101202.91;4998730;28;45228;-52
2023/12/25 00:44:12;;;;;;;;;6.00;3.33;;;;;12.93;74.99;101196.56;4998403;28;46030;-50
2023/12/25 00:46:38;;;;;;;;;3.67;3.00;;;;;12.93;75.05;101199.22;4998569;28;45343;-55
2023/12/25 00:49:03;;;;;;;;;8.00;4.00;;;;;12.92;75.30;101200.22;4998682;28;45497;-55
2023/12/25 00:51:28;;;;;;;;;2.67;2.00;;;;;12.90;75.33;101202.22;4998789;28;45344;-55
2023/12/25 00:53:54;;;;;;;;;12.67;3.00;;;;;12.86;75.13;101193.66;4998378;28;46286;-54
2023/12/25 00:56:19;;;;;;;;;8.00;3.67;;;;;12.92;75.61;101213.59;4998511;28;45586;-55
2023/12/25 00:58:44;;;;;;;;;4.67;4.00;;;;;12.92;75.25;101206.41;4998541;28;45403;-55
2023/12/25 01:01:10;;;;;;;;;7.67;3.00;;;;;12.83;75.54;101193.13;4998336;28;45465;-56
2023/12/25 01:03:35;;;;;;;;;5.33;3.00;;;;;12.94;75.20;101208.94;4998216;28;47354;-55
2023/12/25 01:06:01;;;;;;;;;6.33;3.00;;;;;12.94;75.22;101222.31;4998207;28;45406;-55
2023/12/25 01:08:26;;;;;;;;;5.67;4.00;;;;;12.95;75.42;101221.31;4998512;28;45231;-54
2023/12/25 01:10:51;;;;;;;;;3.33;3.00;;;;;12.94;75.55;101209.78;4998563;28;45431;-52
2023/12/25 01:13:17;;;;;;;;;3.67;2.67;;;;;12.93;75.44;101212.59;4998222;28;46026;-55
2023/12/25 01:15:43;;;;;;;;;8.67;2.00;;;;;12.90;75.72;101208.41;4997781;28;45390;-55
2023/12/25 01:18:08;;;;;;;;;7.67;4.00;;;;;12.88;75.73;101206.88;4998386;28;45354;-56
2023/12/25 01:20:33;;;;;;;;;8.00;3.00;;;;;12.86;76.40;101215.03;4998222;28;45308;-51
2023/12/25 01:22:59;;;;;;;;;7.00;3.00;;;;;12.82;76.49;101208.31;4997970;28;45340;-55
2023/12/25 01:25:24;;;;;;;;;9.67;3.00;;;;;12.80;76.39;101204.94;4997975;28;45346;-53
2023/12/25 01:27:49;;;;;;;;;10.33;3.33;;;;;12.88;76.35;101217.53;4997940;28;45292;-56
2023/12/25 01:30:15;;;;;;;;;7.00;2.67;;;;;12.87;76.39;101207.84;4998066;28;45469;-55
2023/12/25 01:32:40;;;;;;;;;9.00;3.00;;;;;12.84;76.50;101200.16;4997864;28;45362;-58
2023/12/25 01:35:06;;;;;;;;;2.00;2.00;;;;;12.87;76.55;101202.53;4997667;28;45583;-57
2023/12/25 01:37:31;;;;;;;;;4.00;2.00;;;;;12.81;77.09;101179.06;4997815;28;45376;-54
2023/12/25 01:39:57;;;;;;;;;4.00;3.00;;;;;12.75;76.96;101175.19;4998151;28;45273;-53
2023/12/25 01:42:22;;;;;;;;;6.00;2.67;;;;;12.81;77.08;101195.97;4997789;28;47174;-55
2023/12/25 01:44:48;;;;;;;;;7.00;3.00;;;;;12.83;77.21;101193.13;4997688;28;45465;-52
2023/12/25 01:47:16;;;;;;;;;6.00;3.33;;;;;12.84;77.30;101192.13;4997735;28;45346;-53
2023/12/25 01:49:42;;;;;;;;;2.33;2.00;;;;;12.85;77.00;101180.44;4997716;28;45304;-55
2023/12/25 01:52:07;;;;;;;;;4.00;3.00;;;;;12.77;76.93;101159.00;4997411;28;45469;-55
2023/12/25 01:54:34;;;;;;;;;6.33;3.00;;;;;12.80;77.08;101164.06;4997563;28;45342;-55
2023/12/25 01:56:59;;;;;;;;;4.67;2.33;;;;;12.83;77.33;101174.44;4997376;28;45349;-55
2023/12/25 01:59:28;;;;;;;;;4.33;2.00;;;;;12.83;77.03;101174.44;4997887;28;45910;-55
2023/12/25 02:01:54;;;;;;;;;8.00;3.00;;;;;12.82;77.42;101178.09;4997241;28;46259;-57
2023/12/25 02:04:19;;;;;;;;;7.67;2.67;;;;;12.84;77.47;101184.13;4997175;28;45548;-55
2023/12/25 02:06:46;;;;;;;;;5.33;2.00;;;;;12.70;77.10;101170.31;4997413;28;45756;-56
2023/12/25 02:09:12;;;;;;;;;3.00;2.00;;;;;12.83;77.33;101191.28;4997456;28;45553;-55
2023/12/25 02:11:40;;;;;;;;;3.33;2.33;;;;;12.85;77.02;101192.00;4997149;28;45759;-55
2023/12/25 02:14:06;;;;;;;;;5.33;2.33;;;;;12.85;76.85;101188.47;4997193;28;45439;-56
2023/12/25 02:16:32;;;;;;;;;3.67;2.00;;;;;12.86;77.10;101185.66;4995851;28;45673;-53
2023/12/25 02:18:58;;;;;;;;;7.33;3.00;;;;;12.87;77.04;101192.69;4997537;28;45669;-56
2023/12/25 02:21:24;;;;;;;;;4.67;3.00;;;;;12.86;77.63;101192.84;4996959;28;45284;-56
2023/12/25 02:23:58;;;;;;;;;4.00;2.00;;;;;12.84;77.33;101194.81;4996787;28;45438;-53
2023/12/25 02:26:23;;;;;;;;;4.33;3.00;;;;;12.86;77.65;101208.84;4997135;28;45367;-55
2023/12/25 02:28:48;;;;;;;;;6.00;2.67;;;;;12.85;77.64;101202.69;4997108;28;45477;-55
2023/12/25 02:31:14;;;;;;;;;4.00;1.67;;;;;12.85;77.55;101202.69;4996776;28;45511;-56
2023/12/25 02:33:39;;;;;;;;;7.67;2.00;;;;;12.85;77.27;101196.47;4996747;28;45446;-56
2023/12/25 02:36:05;;;;;;;;;8.00;4.67;;;;;12.80;77.88;101190.75;4995018;28;45425;-55
2023/12/25 02:38:30;;;;;;;;;6.00;4.00;;;;;12.80;77.51;101202.25;4997246;28;45328;-54
2023/12/25 02:40:56;;;;;;;;;4.67;2.00;;;;;12.81;77.54;101187.94;4995653;28;46116;-56
2023/12/25 02:43:21;;;;;;;;;10.33;7.33;;;;;12.84;77.58;101189.47;4996911;28;45398;-55
2023/12/25 02:45:46;;;;;;;;;2.00;2.00;;;;;12.83;77.73;101191.28;4996701;28;45524;-52
2023/12/25 02:48:12;;;;;;;;;8.33;4.00;;;;;12.78;77.68;101182.06;4996956;28;45331;-53
2023/12/25 02:50:37;;;;;;;;;6.33;4.00;;;;;12.83;78.29;101190.47;4996513;28;45423;-56
2023/12/25 02:53:03;;;;;;;;;7.67;1.67;;;;;12.83;78.09;101191.28;4996637;28;45443;-54
2023/12/25 02:55:29;;;;;;;;;7.00;3.00;;;;;12.81;78.30;101185.28;4996788;28;45338;-54
2023/12/25 02:57:54;;;;;;;;;1.67;1.67;;;;;12.82;77.97;101205.63;4996791;28;45193;-54
2023/12/25 03:00:20;;;;;;;;;7.33;2.33;;;;;12.82;78.27;101208.31;4996376;28;46107;-55
2023/12/25 03:02:45;;;;;;;;;3.00;1.00;;;;;12.85;78.22;101213.38;4996548;28;45306;-55
2023/12/25 03:05:10;;;;;;;;;9.00;4.00;;;;;12.83;78.25;101209.16;4996653;28;45247;-55
2023/12/25 03:07:36;;;;;;;;;8.00;6.00;;;;;12.85;78.12;101208.03;4996911;28;45507;-55
2023/12/25 03:10:01;;;;;;;;;5.67;3.00;;;;;12.87;77.78;101205.19;4996270;28;48896;-55
2023/12/25 03:12:26;;;;;;;;;7.67;4.00;;;;;12.86;78.50;101196.34;4996425;28;45321;-52
2023/12/25 03:14:52;;;;;;;;;7.00;4.67;;;;;12.85;78.38;101196.47;4996812;28;45334;-56
2023/12/25 03:17:17;;;;;;;;;6.33;2.67;;;;;12.87;78.54;101192.69;4996501;28;45441;-52
2023/12/25 03:19:42;;;;;;;;;14.00;5.33;;;;;12.83;78.79;101177.94;4996129;28;45379;-52
2023/12/25 03:22:08;;;;;;;;;8.00;6.00;;;;;12.85;78.48;101183.13;4996167;28;45874;-52
2023/12/25 03:24:33;;;;;;;;;5.33;2.00;;;;;12.84;78.99;101184.13;4996407;28;45345;-51
2023/12/25 03:26:58;;;;;;;;;2.00;1.33;;;;;12.83;78.72;101191.28;4995496;28;45351;-49
2023/12/25 03:29:24;;;;;;;;;4.00;3.00;;;;;12.83;78.76;101190.47;4996125;28;45371;-53
2023/12/25 03:31:49;;;;;;;;;7.00;3.00;;;;;12.84;78.93;101189.47;4996143;28;45396;-53
2023/12/25 03:34:18;;;;;;;;;4.33;2.00;;;;;12.83;78.71;101196.63;4996426;28;45287;-55
2023/12/25 03:36:43;;;;;;;;;3.00;1.00;;;;;12.83;79.08;101190.47;4996149;28;45231;-55
2023/12/25 03:39:09;;;;;;;;;2.00;2.00;;;;;12.82;79.24;101194.13;4996014;28;45337;-55
2023/12/25 03:41:34;;;;;;;;;4.33;1.00;;;;;12.82;79.83;101199.47;4996070;28;45347;-51
2023/12/25 03:43:59;;;;;;;;;7.00;3.00;;;;;12.83;79.57;101191.28;4994733;28;46571;-55
2023/12/25 03:46:25;;;;;;;;;1.67;1.00;;;;;12.82;79.74;101196.78;4995071;28;45476;-52
2023/12/25 03:48:50;;;;;;;;;3.67;2.00;;;;;12.80;79.47;101190.75;4997049;28;45377;-52
2023/12/25 03:51:15;;;;;;;;;2.00;2.00;;;;;12.82;79.66;101180.78;4999683;28;45252;-50
2023/12/25 03:53:41;;;;;;;;;3.00;3.00;;;;;12.80;80.20;101188.91;4999439;28;45362;-51
2023/12/25 03:56:07;;;;;;;;;3.67;2.00;;;;;12.76;79.68;101178.69;4999817;28;45333;-52
2023/12/25 03:58:36;;;;;;;;;6.00;2.00;;;;;12.81;79.44;101182.63;4999261;28;46081;-52
2023/12/25 04:01:01;;;;;;;;;1.33;1.00;;;;;12.81;80.25;101163.06;4999053;28;45397;-55
2023/12/25 04:03:26;;;;;;;;;3.00;3.00;;;;;12.79;79.75;101178.41;4999771;28;45411;-54
2023/12/25 04:05:51;;;;;;;;;7.00;3.00;;;;;12.79;80.28;101165.06;4999321;28;45675;-55
2023/12/25 04:08:17;;;;;;;;;7.00;2.00;;;;;12.80;79.88;101186.25;4999342;28;46027;-56
2023/12/25 04:10:42;;;;;;;;;3.00;2.00;;;;;12.79;79.99;101184.56;4999276;28;45362;-54
2023/12/25 04:13:08;;;;;;;;;4.00;2.67;;;;;12.81;79.96;101187.09;4999241;28;45406;-55
2023/12/25 04:15:33;;;;;;;;;1.00;1.00;;;;;12.71;79.82;101165.78;4999444;28;45505;-55
2023/12/25 04:17:58;;;;;;;;;4.00;1.00;;;;;12.82;79.82;101178.09;4999270;28;49994;-55
2023/12/25 04:20:24;;;;;;;;;4.33;1.00;;;;;12.83;79.59;101169.09;4999155;28;45365;-52
2023/12/25 04:22:49;;;;;;;;;4.00;2.33;;;;;12.79;79.99;101165.88;4998936;28;45294;-54
2023/12/25 04:25:14;;;;;;;;;0.33;0.33;;;;;12.79;80.08;101157.88;4999384;28;45197;-55
2023/12/25 04:27:40;;;;;;;;;7.00;3.33;;;;;12.83;79.97;101155.75;4998859;28;46252;-55
2023/12/25 04:30:06;;;;;;;;;2.00;2.00;;;;;12.84;79.63;101162.75;4998932;28;45331;-53
2023/12/25 04:32:31;;;;;;;;;3.33;2.00;;;;;12.85;79.81;101164.44;4998959;28;45171;-56
2023/12/25 04:34:57;;;;;;;;;1.00;1.00;;;;;12.85;79.86;101156.44;4998887;28;45327;-53
2023/12/25 04:37:22;;;;;;;;;3.33;1.67;;;;;12.84;80.24;101152.09;4998750;28;48829;-53
2023/12/25 04:39:47;;;;;;;;;9.00;4.00;;;;;12.85;79.80;101154.63;4998692;28;45426;-56
2023/12/25 04:42:13;;;;;;;;;4.00;2.00;;;;;12.86;79.73;101150.13;4998723;28;45576;-56
2023/12/25 04:44:38;;;;;;;;;3.33;1.00;;;;;12.81;79.52;101152.38;4999130;28;45939;-56
2023/12/25 04:47:04;;;;;;;;;3.00;2.00;;;;;12.80;79.90;101156.88;4998583;28;45322;-57
2023/12/25 04:49:29;;;;;;;;;4.00;2.33;;;;;12.84;80.19;101168.09;4998589;28;45433;-54
2023/12/25 04:51:54;;;;;;;;;3.00;3.00;;;;;12.82;80.39;101164.75;4998976;28;45351;-56
2023/12/25 04:54:20;;;;;;;;;5.67;1.33;;;;;12.82;80.51;101162.09;4998882;28;45453;-55
2023/12/25 04:56:45;;;;;;;;;2.00;1.33;;;;;12.83;79.86;101161.09;4998571;28;45405;-55
2023/12/25 04:59:11;;;;;;;;;1.00;1.00;;;;;12.84;80.31;101168.09;4998066;28;45330;-54
2023/12/25 05:01:36;;;;;;;;;4.67;1.00;;;;;12.82;80.26;101157.59;4998266;28;45335;-54
2023/12/25 05:04:02;;;;;;;;;3.33;0.67;;;;;12.85;80.39;101159.09;4998642;28;45393;-55
2023/12/25 05:06:27;;;;;;;;;1.67;1.00;;;;;12.84;80.66;101165.44;4998310;28;46214;-53
2023/12/25 05:08:53;;;;;;;;;1.33;1.33;;;;;12.85;80.25;101172.44;4998394;28;45227;-54
2023/12/25 05:11:19;;;;;;;;;2.00;2.00;;;;;12.85;80.37;101167.09;4998555;28;45359;-53
2023/12/25 05:13:44;;;;;;;;;0.33;0.33;;;;;12.85;80.54;101159.97;4997233;28;45291;-54
2023/12/25 05:16:10;;;;;;;;;2.00;1.00;;;;;12.83;80.41;101153.91;4996736;28;45571;-54
2023/12/25 05:18:35;;;;;;;;;1.00;1.00;;;;;12.84;80.22;101158.25;4998294;28;45319;-55
2023/12/25 05:21:00;;;;;;;;;1.00;1.00;;;;;12.86;79.86;101150.94;4998324;28;45301;-55
2023/12/25 05:23:26;;;;;;;;;2.00;1.00;;;;;12.79;80.31;101141.84;4998667;28;45366;-55
2023/12/25 05:25:52;;;;;;;;;1.00;1.00;;;;;12.85;80.17;101159.09;4997972;28;46885;-56
2023/12/25 05:28:17;;;;;;;;;0.33;0.33;;;;;12.83;80.08;101156.59;4997974;28;45382;-56
2023/12/25 05:30:43;;;;;;;;;3.00;0.00;;;;;12.86;80.32;101152.78;4998215;28;45290;-55
2023/12/25 05:33:08;;;;;;;;;0.00;0.00;;;;;12.82;80.34;101148.75;4998329;28;45381;-56
2023/12/25 05:35:34;;;;;;;;;3.00;1.00;;;;;12.87;80.08;101159.81;4997439;28;46096;-55
2023/12/25 05:38:00;;;;;;;;;1.00;0.67;;;;;12.85;80.38;101169.78;4997890;28;45401;-55
2023/12/25 05:40:25;;;;;;;;;3.00;1.00;;;;;12.85;80.18;101167.09;4998362;28;45382;-56
2023/12/25 05:42:50;;;;;;;;;0.00;0.00;;;;;12.79;80.27;101165.88;4996882;28;45473;-55
2023/12/25 05:45:16;;;;;;;;;0.00;0.00;;;;;12.84;79.98;101162.75;4996788;28;46158;-56
2023/12/25 05:47:41;;;;;;;;;1.00;1.00;;;;;12.86;79.94;101163.47;4997625;28;45386;-54
2023/12/25 05:50:09;;;;;;;;;1.67;1.67;;;;;12.86;79.97;101150.13;4997892;28;45772;-53
2023/12/25 05:52:35;;;;;;;;;1.00;0.00;;;;;12.84;80.16;101152.91;4998011;28;45241;-53
2023/12/25 05:55:00;;;;;;;;;0.00;0.00;;;;;12.86;79.94;101160.81;4997692;28;47308;-54
2023/12/25 05:57:28;;;;;;;;;3.00;1.67;;;;;12.86;79.87;101153.63;4997931;28;45338;-54
2023/12/25 05:59:53;;;;;;;;;2.00;1.00;;;;;12.77;79.99;101132.31;4997681;28;45453;-55
2023/12/25 06:02:19;;;;;;;;;1.00;1.00;;;;;12.86;79.86;101150.94;4997523;28;45398;-54
2023/12/25 06:04:44;;;;;;;;;1.00;1.00;;;;;12.87;80.05;101143.78;4997191;28;45982;-54
2023/12/25 06:07:11;;;;;;;;;2.00;1.00;;;;;12.87;79.75;101149.13;4997193;28;45402;-54
2023/12/25 06:09:36;;;;;;;;;4.67;0.00;;;;;12.87;79.89;101149.94;4997359;28;45314;-55
2023/12/25 06:12:02;;;;;;;;;2.33;1.33;;;;;12.88;79.76;101151.63;4996577;28;45370;-55
2023/12/25 06:14:27;;;;;;;;;2.00;0.33;;;;;12.83;80.22;101143.25;4997473;28;45484;-54
2023/12/25 06:16:53;;;;;;;;;2.00;0.00;;;;;12.88;79.87;101150.78;4996978;28;50582;-51
2023/12/25 06:19:18;;;;;;;;;1.00;0.00;;;;;12.88;79.90;101153.47;4997241;28;45386;-56
2023/12/25 06:21:43;;;;;;;;;0.00;0.00;;;;;12.85;79.74;101156.44;4996103;28;45371;-55
2023/12/25 06:24:09;;;;;;;;;0.00;0.00;;;;;12.86;79.55;101163.47;4997011;28;50596;-54
2023/12/25 06:26:34;;;;;;;;;0.33;0.00;;;;;12.88;80.11;101167.66;4997277;28;45382;-52
2023/12/25 06:29:00;;;;;;;;;1.33;1.00;;;;;12.89;79.72;101177.34;4997477;28;45395;-55
2023/12/25 06:31:25;;;;;;;;;3.33;1.00;;;;;12.83;80.12;101169.94;4997484;28;45438;-55
2023/12/25 06:33:51;;;;;;;;;0.00;0.00;;;;;12.82;79.95;101156.75;4996975;28;47198;-56
2023/12/25 06:36:16;;;;;;;;;1.00;0.00;;;;;12.90;79.75;101170.19;4996938;28;45827;-55
2023/12/25 06:38:42;;;;;;;;;0.00;0.00;;;;;12.91;79.64;101164.69;4997260;28;45305;-55
2023/12/25 06:41:10;;;;;;;;;0.67;0.33;;;;;12.84;80.33;101154.75;4997241;28;45577;-55
2023/12/25 06:43:36;;;;;;;;;0.00;0.00;;;;;12.92;80.23;101169.03;4996726;28;46369;-54
2023/12/25 06:46:01;;;;;;;;;0.00;0.00;;;;;12.88;80.03;101164.13;4996955;28;45441;-54
2023/12/25 06:48:27;;;;;;;;;0.00;0.00;;;;;12.89;80.18;101177.34;4997115;28;45681;-55
2023/12/25 06:50:53;;;;;;;;;0.00;0.00;;;;;12.90;80.13;101154.16;4997064;28;45394;-54
2023/12/25 06:53:18;;;;;;;;;0.00;0.00;;;;;12.90;80.30;101172.84;4996757;28;45430;-54
2023/12/25 06:55:44;;;;;;;;;0.00;0.00;;;;;12.90;80.71;101179.03;4995444;28;45378;-55
2023/12/25 06:58:09;;;;;;;;;0.00;0.00;;;;;12.87;80.59;101186.50;4996958;28;45357;-54
2023/12/25 07:00:34;;;;;;;;;2.00;0.00;;;;;12.87;80.72;101178.50;4996951;28;45977;-53
2023/12/25 07:03:00;;;;;;;;;1.00;0.00;;;;;12.89;80.46;101184.50;4996454;28;46759;-54
2023/12/25 07:05:25;;;;;;;;;0.67;0.00;;;;;12.88;80.67;101182.84;4996827;28;45399;-54
2023/12/25 07:07:50;;;;;;;;;0.67;0.00;;;;;12.84;80.62;101166.28;4996619;28;45256;-55
2023/12/25 07:10:16;;;;;;;;;0.00;0.00;;;;;12.87;80.57;101173.16;4997062;28;45315;-53
2023/12/25 07:12:41;;;;;;;;;1.00;0.00;;;;;12.85;80.80;101181.31;4996383;28;46369;-56
2023/12/25 07:15:07;;;;;;;;;0.00;0.00;;;;;12.85;80.96;101184.00;4996456;28;45378;-55
2023/12/25 07:17:33;;;;;;;;;0.00;0.00;;;;;12.87;80.77;101186.50;4996554;28;45208;-55
2023/12/25 07:19:58;;;;;;;;;0.67;0.00;;;;;12.86;80.72;101187.50;4996719;28;45388;-51
2023/12/25 07:22:24;;;;;;;;;0.00;0.00;;;;;12.84;81.07;101179.63;4996214;28;47218;-56
2023/12/25 07:24:50;;;;;;;;;0.00;0.00;;;;;12.85;81.21;101181.31;4996511;28;45508;-58
2023/12/25 07:27:15;;;;;;;;;1.67;0.00;;;;;12.84;81.04;101189.47;4996468;28;45267;-55
2023/12/25 07:29:40;;;;;;;;;0.00;0.00;;;;;12.82;80.88;101188.78;4996642;28;45322;-54
2023/12/25 07:32:06;;;;;;;;;0.00;0.00;;;;;12.82;81.23;101199.47;4996100;28;45382;-52
2023/12/25 07:34:31;;;;;;;;;0.00;0.00;;;;;12.82;81.12;101213.66;4996165;28;45400;-51
2023/12/25 07:36:57;;;;;;;;;1.00;0.00;;;;;12.84;81.22;101213.50;4996340;28;45426;-52
2023/12/25 07:39:22;;;;;;;;;1.67;0.33;;;;;12.86;81.08;101216.88;4996522;28;45344;-51
2023/12/25 07:41:47;;;;;;;;;1.00;1.00;;;;;12.86;81.00;101211.53;4996269;28;46228;-52
2023/12/25 07:44:13;;;;;;;;;0.00;0.00;;;;;12.81;80.52;101213.78;4996092;28;45403;-52
2023/12/25 07:46:38;;;;;;;;;0.00;0.00;;;;;12.85;80.90;101218.69;4996455;28;45393;-52
2023/12/25 07:49:04;;;;;;;;;2.00;0.00;;;;;12.85;80.95;101225.84;4996322;28;45249;-53
2023/12/25 07:51:29;;;;;;;;;0.00;0.00;;;;;12.84;81.00;101218.84;4995946;28;46004;-53
2023/12/25 07:53:54;;;;;;;;;0.33;0.00;;;;;12.86;80.66;101217.69;4996340;28;45314;-53
2023/12/25 07:56:20;;;;;;;;;1.67;0.00;;;;;12.87;80.44;101227.38;4996273;28;45285;-51
2023/12/25 07:58:45;;;;;;;;;0.00;0.00;;;;;12.87;80.77;101231.88;4996411;28;45315;-51
2023/12/25 08:01:12;;;;;;;;;1.33;0.00;;;;;12.86;80.91;101228.38;4995811;28;46023;-53
2023/12/25 08:03:37;;;;;;;;;1.00;1.00;;;;;12.81;80.79;101229.81;4995807;28;45271;-53
2023/12/25 08:06:03;;;;;;;;;0.00;0.00;;;;;12.86;80.41;101228.38;4995984;28;45377;-51
2023/12/25 08:08:28;;;;;;;;;1.00;0.00;;;;;12.87;80.26;101230.06;4996207;28;45366;-54
2023/12/25 08:10:54;;;;;;;;;0.00;0.00;;;;;12.87;80.33;101235.41;4995851;28;50158;-53
2023/12/25 08:13:19;;;;;;;;;0.33;0.00;;;;;12.86;80.01;101227.56;4995737;28;45360;-54
2023/12/25 08:15:44;;;;;;;;;0.00;0.00;;;;;12.87;80.49;101221.22;4995718;28;45346;-53
2023/12/25 08:18:10;;;;;;;;;1.00;0.00;;;;;12.89;80.16;101221.88;4995769;28;45395;-50
2023/12/25 08:20:35;;;;;;;;;0.00;0.00;;;;;12.89;79.83;101225.44;4995785;28;45310;-52
2023/12/25 08:23:00;;;;;;;;;0.00;0.00;;;;;12.80;80.08;101209.44;4995507;28;46891;-53
2023/12/25 08:25:26;;;;;;;;;0.00;0.00;;;;;12.88;79.89;101223.72;4996139;28;45912;-52
2023/12/25 08:27:52;;;;;;;;;0.00;0.00;;;;;12.92;80.00;101225.09;4996090;28;45462;-54
2023/12/25 08:30:17;;;;;;;;;0.00;0.00;;;;;12.93;79.74;101228.59;4995427;28;46370;-56
2023/12/25 08:32:42;;;;;;;;;1.33;1.33;;;;;12.92;79.79;101226.94;4995521;28;45511;-57
2023/12/25 08:35:08;;;;;;;;;0.00;0.00;;;;;12.92;80.05;101230.44;4997223;28;45446;-55
2023/12/25 08:37:33;;;;;;;;;2.00;0.00;;;;;12.93;79.76;101233.94;4999116;28;45405;-55
2023/12/25 08:39:58;;;;;;;;;0.00;0.00;;;;;12.94;80.00;101231.16;4998838;28;46909;-53
2023/12/25 08:42:24;;;;;;;;;0.67;0.00;;;;;12.96;79.83;101233.66;4999071;28;45342;-54
2023/12/25 08:44:49;;;;;;;;;0.00;0.00;;;;;12.97;79.52;101230.00;4998914;28;45315;-55
2023/12/25 08:47:14;;;;;;;;;0.00;0.00;;;;;12.96;79.15;101239.00;4999025;28;45374;-53
2023/12/25 08:49:40;;;;;;;;;1.00;0.00;;;;;12.95;79.30;101246.16;4998464;28;47461;-55
2023/12/25 08:52:06;;;;;;;;;0.00;0.00;;;;;12.95;79.28;101248.00;4998806;28;45347;-56
2023/12/25 08:54:31;;;;;;;;;0.00;0.00;;;;;12.96;79.26;101250.50;4998794;28;45220;-55
2023/12/25 08:56:58;;;;;;;;;0.00;0.00;;;;;12.94;79.16;101246.34;4999186;28;45311;-56
2023/12/25 08:59:24;;;;;;;;;1.67;0.00;;;;;12.99;78.67;101254.72;4998791;28;46687;-55
2023/12/25 09:01:49;;;;;;;;;0.00;0.00;;;;;12.98;78.50;101253.06;4998499;28;45401;-56
2023/12/25 09:04:15;;;;;;;;;3.00;0.00;;;;;12.99;78.67;101263.56;4998496;28;45394;-56
2023/12/25 09:06:41;;;;;;;;;0.00;0.00;;;;;13.00;78.50;101248.38;4999019;28;45364;-55
2023/12/25 09:09:07;;;;;;;;;0.00;0.00;;;;;13.02;78.47;101251.75;4998115;28;46246;-57
2023/12/25 09:11:32;;;;;;;;;0.00;0.00;;;;;12.95;78.59;101231.97;4998636;28;45405;-55
2023/12/25 09:13:57;;;;;;;;;0.00;0.00;;;;;13.05;78.43;101246.09;4998661;28;45417;-52
2023/12/25 09:16:22;;;;;;;;;0.00;0.00;;;;;13.06;78.36;101255.81;4998544;28;45442;-56
2023/12/25 09:18:48;;;;;;;;;0.00;0.00;;;;;13.07;78.12;101252.16;4997815;28;51455;-56
2023/12/25 09:21:17;;;;;;;;;2.33;0.00;;;;;13.04;78.19;101264.97;4996720;28;45384;-54
2023/12/25 09:23:42;;;;;;;;;0.00;0.00;;;;;13.04;78.24;101263.13;4998349;28;45296;-57
2023/12/25 09:26:07;;;;;;;;;0.00;0.00;;;;;13.03;79.13;101268.63;4998295;28;45327;-56
2023/12/25 09:28:33;;;;;;;;;1.67;0.00;;;;;13.00;78.61;101272.44;4998054;28;47601;-56
2023/12/25 09:30:58;;;;;;;;;0.00;0.00;;;;;13.06;78.44;101287.00;4998367;28;45400;-56
2023/12/25 09:33:24;;;;;;;;;0.00;0.00;;;;;12.93;78.45;101266.81;4997987;28;45498;-55
2023/12/25 09:35:50;;;;;;;;;1.00;0.00;;;;;12.97;78.29;101278.91;4998103;28;45466;-56
2023/12/25 09:38:16;;;;;;;;;0.00;0.00;;;;;13.01;78.96;101292.78;4997644;28;47255;-55
2023/12/25 09:40:42;;;;;;;;;0.00;0.00;;;;;13.01;79.01;101287.44;4997853;28;45470;-52
2023/12/25 09:43:08;;;;;;;;;0.00;0.00;;;;;13.00;78.93;101288.44;4998103;28;45384;-55
2023/12/25 09:45:37;;;;;;;;;0.67;0.67;;;;;12.99;79.33;101292.97;4997913;28;45434;-50
2023/12/25 09:48:03;;;;;;;;;0.33;0.00;;;;;13.01;79.29;101295.47;4996457;28;47653;-51
2023/12/25 09:50:31;;;;;;;;;2.00;0.00;;;;;13.02;79.32;101290.97;4997422;28;45296;-52
2023/12/25 09:52:56;;;;;;;;;0.00;0.00;;;;;13.04;79.79;101291.66;4997902;28;45326;-52
2023/12/25 09:55:22;;;;;;;;;0.00;0.00;;;;;13.06;79.64;101300.34;4997623;28;45544;-52
2023/12/25 09:57:50;;;;;;;;;0.00;0.00;;;;;13.05;79.99;101290.66;4996281;28;46792;-53
2023/12/25 10:00:19;;;;;;;;;0.00;0.00;;;;;13.04;80.67;101297.84;4997568;28;45240;-55
2023/12/25 10:02:48;;;;;;;;;3.33;0.00;;;;;12.99;81.09;101297.47;4997486;28;45344;-55
2023/12/25 10:05:15;;;;;;;;;0.00;0.00;;;;;12.86;82.27;101291.63;4997543;28;45682;-53
2023/12/25 10:07:41;;;;;;;;;0.00;0.00;;;;;12.93;82.41;101309.56;4997188;28;46892;-54
2023/12/25 10:10:08;;;;;;;;;1.67;0.00;;;;;12.90;82.95;101304.53;4997306;28;45291;-54
2023/12/25 10:12:34;;;;;;;;;1.33;0.00;;;;;12.89;82.12;101294.84;4997667;28;45870;-51
2023/12/25 10:14:59;;;;;;;;;0.67;0.67;;;;;12.88;83.40;101311.00;4997504;28;45503;-54
2023/12/25 10:17:25;;;;;;;;;1.00;1.00;;;;;12.88;83.57;101306.50;4997144;28;47325;-50
2023/12/25 10:19:51;;;;;;;;;6.67;4.00;;;;;12.89;84.12;101304.66;4997165;28;45464;-52
2023/12/25 10:22:34;;;;;;;;;1.00;1.00;;;;;12.83;83.46;101286.56;4997036;28;45426;-52
2023/12/25 10:25:13;;;;;;;;;0.00;0.00;;;;;12.90;83.85;101291.19;4997431;28;45549;-52
2023/12/25 10:27:43;;;;;;;;;1.00;1.00;;;;;12.87;84.20;101274.63;4996827;28;46096;-51
2023/12/25 10:30:16;;;;;;;;;2.67;0.00;;;;;12.96;83.88;101297.75;4997105;28;45335;-55
2023/12/25 10:32:41;;;;;;;;;0.00;0.00;;;;;12.99;83.76;101297.47;4997002;28;45262;-54
2023/12/25 10:35:11;;;;;;;;;0.67;0.00;;;;;13.05;83.10;101290.66;4996873;28;45465;-53
2023/12/25 10:37:38;;;;;;;;;2.67;1.33;;;;;13.02;83.52;101281.16;4996552;28;47081;-54
2023/12/25 10:40:25;;;;;;;;;1.00;1.00;;;;;13.14;82.86;101292.44;4997170;28;45441;-55
2023/12/25 10:42:52;;;;;;;;;1.00;0.00;;;;;13.18;82.51;101297.31;4996887;28;45282;-52
2023/12/25 10:45:23;;;;;;;;;0.00;0.00;;;;;13.13;82.63;101286.25;4997031;28;45325;-48
2023/12/25 10:47:53;;;;;;;;;0.33;0.33;;;;;13.21;82.01;101285.50;4996724;28;47427;-49
2023/12/25 10:50:20;;;;;;;;;1.00;0.33;;;;;13.25;83.17;101283.41;4996770;28;45363;-53
2023/12/25 10:52:48;;;;;;;;;2.67;1.33;;;;;13.27;83.26;101282.25;4996658;28;45501;-53
2023/12/25 10:55:19;;;;;;;;;1.00;1.00;;;;;13.27;82.82;101279.59;4997066;28;45513;-52
2023/12/25 10:57:45;;;;;;;;;0.00;0.00;;;;;13.26;83.04;101271.72;4996497;28;45551;-53
2023/12/25 11:00:12;;;;;;;;;2.00;2.00;;;;;13.23;82.68;101271.06;4996763;28;45278;-51
2023/12/25 11:02:39;;;;;;;;;1.00;1.00;;;;;13.19;82.55;101269.66;4996615;28;45398;-51
2023/12/25 11:05:05;;;;;;;;;1.00;1.00;;;;;13.18;83.11;101269.78;4996699;28;45247;-51
2023/12/25 11:07:30;;;;;;;;;3.33;1.00;;;;;13.19;83.02;101271.47;4994843;28;46520;-53
2023/12/25 11:09:57;;;;;;;;;1.00;1.00;;;;;13.19;83.09;101271.47;4996622;28;45470;-55
2023/12/25 11:12:23;;;;;;;;;1.33;1.00;;;;;13.18;82.94;101267.94;4996484;28;45338;-56
2023/12/25 11:14:49;;;;;;;;;2.33;1.00;;;;;13.18;83.18;101262.59;4996525;28;45548;-56
2023/12/25 11:17:14;;;;;;;;;0.67;0.67;;;;;13.19;83.63;101266.97;4996441;28;46037;-55